sensor_id;sensor_type;location;lat;lon;timestamp;P1;durP1;ratioP1;P2;durP2;ratioP2
75922;SDS011;64602;47.542;19.090;2023-02-26T07:50:31;7.62;;;3.78;;
75922;SDS011;64602;47.542;19.090;2023-02-26T07:55:34;8.07;;;3.87;;
75922;SDS011;64602;47.542;19.090;2023-02-26T08:00:36;6.67;;;3.87;;
75922;SDS011;64602;47.542;19.090;2023-02-26T08:05:38;6.62;;;4.12;;
75922;SDS011;64602;47.542;19.090;2023-02-26T08:10:41;9.27;;;4.10;;
75922;SDS011;64602;47.542;19.090;2023-02-26T08:15:43;8.03;;;3.87;;
75922;SDS011;64602;47.542;19.090;2023-02-26T08:20:45;7.73;;;4.00;;
75922;SDS011;64602;47.542;19.090;2023-02-26T08:25:47;6.68;;;3.97;;
75922;SDS011;64602;47.542;19.090;2023-02-26T08:30:53;7.18;;;4.20;;
75922;SDS011;64602;47.542;19.090;2023-02-26T08:35:56;7.83;;;3.87;;
75922;SDS011;64602;47.542;19.090;2023-02-26T08:40:59;6.47;;;4.03;;
75922;SDS011;64602;47.542;19.090;2023-02-26T08:46:01;6.22;;;3.58;;
75922;SDS011;64602;47.542;19.090;2023-02-26T08:51:04;5.20;;;3.50;;
75922;SDS011;64602;47.542;19.090;2023-02-26T08:56:06;6.45;;;3.72;;
75922;SDS011;64602;47.542;19.090;2023-02-26T09:01:08;5.95;;;3.20;;
75922;SDS011;64602;47.542;19.090;2023-02-26T09:06:11;6.43;;;3.80;;
75922;SDS011;64602;47.542;19.090;2023-02-26T09:11:13;9.57;;;4.57;;
75922;SDS011;64602;47.542;19.090;2023-02-26T09:16:15;5.57;;;3.47;;
75922;SDS011;64602;47.542;19.090;2023-02-26T09:21:17;5.28;;;3.33;;
75922;SDS011;64602;47.542;19.090;2023-02-26T09:26:19;4.87;;;2.70;;
75922;SDS011;64602;47.542;19.090;2023-02-26T09:31:22;4.95;;;2.80;;
75922;SDS011;64602;47.542;19.090;2023-02-26T09:36:24;3.58;;;2.28;;
75922;SDS011;64602;47.542;19.090;2023-02-26T09:41:29;4.23;;;2.60;;
75922;SDS011;64602;47.542;19.090;2023-02-26T09:52:02;5.37;;;2.58;;
75922;SDS011;64602;47.542;19.090;2023-02-26T09:57:14;3.43;;;1.83;;
75922;SDS011;64602;47.542;19.090;2023-02-26T10:02:36;3.83;;;1.67;;
75922;SDS011;64602;47.542;19.090;2023-02-26T10:07:54;3.17;;;1.77;;
75922;SDS011;64602;47.542;19.090;2023-02-26T10:13:00;4.35;;;1.80;;
75922;SDS011;64602;47.542;19.090;2023-02-26T10:18:13;3.70;;;2.03;;
75922;SDS011;64602;47.542;19.090;2023-02-26T10:23:31;4.30;;;2.35;;
75922;SDS011;64602;47.542;19.090;2023-02-26T10:39:34;6.80;;;3.78;;
75922;SDS011;64602;47.542;19.090;2023-02-26T10:44:48;5.20;;;2.95;;
75922;SDS011;64602;47.542;19.090;2023-02-26T10:50:00;4.87;;;2.80;;
75922;SDS011;64602;47.542;19.090;2023-02-26T10:55:25;4.43;;;2.50;;
75922;SDS011;64602;47.542;19.090;2023-02-26T11:00:31;5.18;;;2.70;;
75922;SDS011;64602;47.542;19.090;2023-02-26T11:05:35;4.45;;;2.40;;
75922;SDS011;64602;47.542;19.090;2023-02-26T11:10:44;4.53;;;2.90;;
75922;SDS011;64602;47.542;19.090;2023-02-26T11:15:52;5.03;;;3.22;;
75922;SDS011;64602;47.542;19.090;2023-02-26T11:20:56;7.32;;;3.30;;
75922;SDS011;64602;47.542;19.090;2023-02-26T11:26:06;6.53;;;3.30;;
75922;SDS011;64602;47.542;19.090;2023-02-26T11:31:10;5.28;;;3.35;;
75922;SDS011;64602;47.542;19.090;2023-02-26T11:36:19;5.05;;;2.85;;
75922;SDS011;64602;47.542;19.090;2023-02-26T11:41:24;4.70;;;2.83;;
75922;SDS011;64602;47.542;19.090;2023-02-26T11:46:29;5.13;;;3.20;;
75922;SDS011;64602;47.542;19.090;2023-02-26T11:51:32;4.95;;;3.17;;
75922;SDS011;64602;47.542;19.090;2023-02-26T11:56:35;5.55;;;3.28;;
75922;SDS011;64602;47.542;19.090;2023-02-26T12:01:41;5.30;;;3.33;;
75922;SDS011;64602;47.542;19.090;2023-02-26T12:06:45;5.75;;;3.00;;
75922;SDS011;64602;47.542;19.090;2023-02-26T12:33:31;5.43;;;3.30;;
75922;SDS011;64602;47.542;19.090;2023-02-26T12:44:03;4.75;;;3.37;;
75922;SDS011;64602;47.542;19.090;2023-02-26T12:54:32;4.80;;;2.90;;
75922;SDS011;64602;47.542;19.090;2023-02-26T13:10:47;5.33;;;3.30;;
75922;SDS011;64602;47.542;19.090;2023-02-26T13:21:47;5.90;;;3.35;;
75922;SDS011;64602;47.542;19.090;2023-02-26T13:27:09;8.50;;;5.40;;
75922;SDS011;64602;47.542;19.090;2023-02-26T13:58:28;4.25;;;2.42;;
75922;SDS011;64602;47.542;19.090;2023-02-26T14:08:48;4.97;;;2.50;;
75922;SDS011;64602;47.542;19.090;2023-02-26T14:14:04;4.70;;;2.28;;
75922;SDS011;64602;47.542;19.090;2023-02-26T14:19:37;4.70;;;2.27;;
75922;SDS011;64602;47.542;19.090;2023-02-26T14:24:44;6.53;;;2.73;;
75922;SDS011;64602;47.542;19.090;2023-02-26T14:29:58;8.32;;;2.92;;
75922;SDS011;64602;47.542;19.090;2023-02-26T14:35:09;4.57;;;2.85;;
75922;SDS011;64602;47.542;19.090;2023-02-26T14:40:18;6.57;;;2.90;;
75922;SDS011;64602;47.542;19.090;2023-02-26T14:50:40;6.35;;;3.25;;
75922;SDS011;64602;47.542;19.090;2023-02-26T15:01:18;5.62;;;3.30;;
75922;SDS011;64602;47.542;19.090;2023-02-26T15:12:11;6.13;;;3.20;;
75922;SDS011;64602;47.542;19.090;2023-02-26T15:28:11;6.07;;;3.80;;
75922;SDS011;64602;47.542;19.090;2023-02-26T15:33:22;5.93;;;3.43;;
75922;SDS011;64602;47.542;19.090;2023-02-26T15:38:25;7.95;;;3.58;;
75922;SDS011;64602;47.542;19.090;2023-02-26T15:43:28;5.37;;;2.70;;
75922;SDS011;64602;47.542;19.090;2023-02-26T15:48:35;4.13;;;2.47;;
75922;SDS011;64602;47.542;19.090;2023-02-26T15:53:49;4.43;;;2.42;;
75922;SDS011;64602;47.542;19.090;2023-02-26T15:58:59;4.25;;;2.37;;
75922;SDS011;64602;47.542;19.090;2023-02-26T16:04:06;5.17;;;2.33;;
75922;SDS011;64602;47.542;19.090;2023-02-26T16:09:17;4.93;;;2.50;;
75922;SDS011;64602;47.542;19.090;2023-02-26T16:14:21;9.30;;;2.85;;
75922;SDS011;64602;47.542;19.090;2023-02-26T16:19:34;6.15;;;2.53;;
75922;SDS011;64602;47.542;19.090;2023-02-26T16:24:42;4.67;;;2.40;;
75922;SDS011;64602;47.542;19.090;2023-02-26T16:29:51;6.18;;;3.22;;
75922;SDS011;64602;47.542;19.090;2023-02-26T16:34:56;5.37;;;2.85;;
75922;SDS011;64602;47.542;19.090;2023-02-26T16:50:39;5.93;;;2.90;;
75922;SDS011;64602;47.542;19.090;2023-02-26T16:55:42;5.77;;;2.67;;
75922;SDS011;64602;47.542;19.090;2023-02-26T17:00:54;6.03;;;3.10;;
75922;SDS011;64602;47.542;19.090;2023-02-26T17:06:10;5.32;;;2.87;;
75922;SDS011;64602;47.542;19.090;2023-02-26T17:11:19;5.28;;;2.92;;
75922;SDS011;64602;47.542;19.090;2023-02-26T17:16:26;7.40;;;3.43;;
75922;SDS011;64602;47.542;19.090;2023-02-26T17:21:29;6.57;;;3.22;;
75922;SDS011;64602;47.542;19.090;2023-02-26T17:26:32;6.05;;;3.60;;
75922;SDS011;64602;47.542;19.090;2023-02-26T17:31:34;7.83;;;4.13;;
75922;SDS011;64602;47.542;19.090;2023-02-26T17:36:36;7.90;;;3.87;;
75922;SDS011;64602;47.542;19.090;2023-02-26T17:41:41;6.55;;;3.62;;
75922;SDS011;64602;47.542;19.090;2023-02-26T17:46:45;7.90;;;4.03;;
75922;SDS011;64602;47.542;19.090;2023-02-26T17:51:47;7.97;;;3.87;;
75922;SDS011;64602;47.542;19.090;2023-02-26T17:56:49;6.62;;;3.60;;
75922;SDS011;64602;47.542;19.090;2023-02-26T18:01:51;6.93;;;4.00;;
75922;SDS011;64602;47.542;19.090;2023-02-26T18:06:54;7.87;;;4.53;;
75922;SDS011;64602;47.542;19.090;2023-02-26T18:11:56;9.32;;;4.12;;
75922;SDS011;64602;47.542;19.090;2023-02-26T18:16:58;10.85;;;5.10;;
75922;SDS011;64602;47.542;19.090;2023-02-26T18:22:01;8.93;;;5.00;;
75922;SDS011;64602;47.542;19.090;2023-02-26T18:27:03;8.07;;;4.30;;
75922;SDS011;64602;47.542;19.090;2023-02-26T18:32:05;7.93;;;4.28;;
75922;SDS011;64602;47.542;19.090;2023-02-26T18:37:15;9.33;;;4.50;;
75922;SDS011;64602;47.542;19.090;2023-02-26T18:42:20;7.97;;;4.53;;
75922;SDS011;64602;47.542;19.090;2023-02-26T18:47:26;7.62;;;3.47;;
75922;SDS011;64602;47.542;19.090;2023-02-26T18:52:29;7.22;;;3.45;;
75922;SDS011;64602;47.542;19.090;2023-02-26T18:57:31;6.43;;;3.80;;
75922;SDS011;64602;47.542;19.090;2023-02-26T19:02:34;6.72;;;3.95;;
75922;SDS011;64602;47.542;19.090;2023-02-26T19:07:36;7.30;;;3.85;;
75922;SDS011;64602;47.542;19.090;2023-02-26T19:12:39;8.20;;;4.30;;
75922;SDS011;64602;47.542;19.090;2023-02-26T19:17:42;8.00;;;4.12;;
75922;SDS011;64602;47.542;19.090;2023-02-26T19:22:44;7.82;;;4.32;;
75922;SDS011;64602;47.542;19.090;2023-02-26T19:27:47;6.90;;;4.07;;
75922;SDS011;64602;47.542;19.090;2023-02-26T19:32:49;9.63;;;4.80;;
75922;SDS011;64602;47.542;19.090;2023-02-26T19:37:52;9.13;;;4.57;;
75922;SDS011;64602;47.542;19.090;2023-02-26T19:42:55;10.13;;;4.62;;
75922;SDS011;64602;47.542;19.090;2023-02-26T19:47:57;10.03;;;5.43;;
75922;SDS011;64602;47.542;19.090;2023-02-26T19:52:59;12.82;;;6.22;;
75922;SDS011;64602;47.542;19.090;2023-02-26T19:58:01;12.27;;;6.62;;
75922;SDS011;64602;47.542;19.090;2023-02-26T20:03:03;14.07;;;7.30;;
75922;SDS011;64602;47.542;19.090;2023-02-26T20:08:06;15.82;;;7.95;;
75922;SDS011;64602;47.542;19.090;2023-02-26T20:13:08;16.77;;;8.77;;
75922;SDS011;64602;47.542;19.090;2023-02-26T20:18:10;17.00;;;8.60;;
75922;SDS011;64602;47.542;19.090;2023-02-26T20:23:12;19.77;;;9.90;;
75922;SDS011;64602;47.542;19.090;2023-02-26T20:28:15;19.70;;;10.05;;
75922;SDS011;64602;47.542;19.090;2023-02-26T20:33:19;14.73;;;7.97;;
75922;SDS011;64602;47.542;19.090;2023-02-26T20:38:24;12.53;;;7.10;;
75922;SDS011;64602;47.542;19.090;2023-02-26T20:43:28;9.95;;;5.97;;
75922;SDS011;64602;47.542;19.090;2023-02-26T20:48:30;7.87;;;4.87;;
75922;SDS011;64602;47.542;19.090;2023-02-26T20:53:33;7.47;;;3.90;;
75922;SDS011;64602;47.542;19.090;2023-02-26T20:58:36;7.95;;;3.95;;
75922;SDS011;64602;47.542;19.090;2023-02-26T21:03:40;7.15;;;3.55;;
75922;SDS011;64602;47.542;19.090;2023-02-26T21:08:42;7.70;;;4.60;;
75922;SDS011;64602;47.542;19.090;2023-02-26T21:13:44;7.13;;;3.67;;
75922;SDS011;64602;47.542;19.090;2023-02-26T21:18:47;6.78;;;3.17;;
75922;SDS011;64602;47.542;19.090;2023-02-26T21:23:49;6.50;;;3.00;;
75922;SDS011;64602;47.542;19.090;2023-02-26T21:28:53;5.87;;;3.20;;
75922;SDS011;64602;47.542;19.090;2023-02-26T21:33:55;6.55;;;3.03;;
75922;SDS011;64602;47.542;19.090;2023-02-26T21:38:57;6.65;;;3.85;;
75922;SDS011;64602;47.542;19.090;2023-02-26T21:44:00;6.33;;;3.23;;
75922;SDS011;64602;47.542;19.090;2023-02-26T21:49:02;6.97;;;3.58;;
75922;SDS011;64602;47.542;19.090;2023-02-26T21:54:04;5.85;;;3.45;;
75922;SDS011;64602;47.542;19.090;2023-02-26T21:59:06;5.27;;;2.83;;
